Time;durP1;ratioP1;P1;durP2;ratioP2;P2;SDS_P1;SDS_P2;PMS_P1;PMS_P2;Temp;Humidity;BMP_temperature;BMP_pressure;BME280_temperature;BME280_humidity;BME280_pressure;Samples;Min_cycle;Max_cycle;Signal;HPM_P1;HPM_P2
2022/10/06 00:00:34;;;;;;;4.90;0.95;;;;;;;15.71;87.98;101262.28;6191545;23;20012;-72
2022/10/06 00:03:00;;;;;;;2.42;0.93;;;;;;;15.65;88.61;101273.94;6191451;23;20001;-72
2022/10/06 00:05:25;;;;;;;2.03;0.80;;;;;;;15.51;89.31;101289.16;6165045;23;20047;-72
2022/10/06 00:07:51;;;;;;;3.20;0.98;;;;;;;15.51;89.40;101299.22;6190675;23;20072;-72
2022/10/06 00:10:17;;;;;;;11.48;0.88;;;;;;;15.43;89.37;101292.81;6165113;23;20062;-72
2022/10/06 00:12:45;;;;;;;3.40;1.08;;;;;;;15.50;89.28;101313.91;6164565;23;20001;-72
2022/10/06 00:15:12;;;;;;;4.47;0.82;;;;;;;15.52;88.50;101309.13;6165506;23;20004;-72
2022/10/06 00:17:38;;;;;;;3.97;0.65;;;;;;;15.55;88.54;101311.50;6191266;23;20005;-72
2022/10/06 00:20:04;;;;;;;2.53;0.80;;;;;;;15.55;88.65;101314.22;6191061;23;20005;-72
2022/10/06 00:22:34;;;;;;;2.08;0.75;;;;;;;15.58;87.93;101316.59;6191349;23;20005;-72
2022/10/06 00:24:59;;;;;;;3.03;0.77;;;;;;;15.56;87.63;101329.56;6191384;23;20005;-72
2022/10/06 00:27:25;;;;;;;3.40;0.70;;;;;;;15.55;86.91;101322.41;6190801;23;20008;-72
2022/10/06 00:29:50;;;;;;;4.18;0.88;;;;;;;15.49;86.27;101318.53;6165033;23;20008;-72
2022/10/06 00:32:15;;;;;;;2.60;0.73;;;;;;;15.47;86.10;101332.34;6164796;23;20005;-72
2022/10/06 00:34:42;;;;;;;3.85;0.77;;;;;;;15.47;85.58;101343.28;6164778;23;20012;-72
2022/10/06 00:37:08;;;;;;;6.13;1.05;;;;;;;15.42;85.24;101334.75;6164827;23;20028;-73
2022/10/06 00:39:33;;;;;;;7.40;0.85;;;;;;;15.47;85.04;101332.34;6191246;23;20005;-73
2022/10/06 00:41:59;;;;;;;2.88;1.13;;;;;;;15.46;84.87;101330.66;6164359;23;20084;-73
2022/10/06 00:44:24;;;;;;;2.05;0.80;;;;;;;15.42;84.61;101339.38;6165236;23;20051;-73
2022/10/06 00:46:52;;;;;;;1.55;0.63;;;;;;;15.35;85.11;101349.31;6191120;23;20012;-72
2022/10/06 00:49:33;;;;;;;2.35;0.50;;;;;;;15.36;85.10;101343.66;6164207;23;20031;-73
2022/10/06 00:52:06;;;;;;;3.80;1.02;;;;;;;15.37;84.89;101350.81;6164633;23;20012;-73
2022/10/06 00:54:32;;;;;;;4.00;1.00;;;;;;;15.32;84.90;101350.53;6164921;23;20064;-72
2022/10/06 00:56:58;;;;;;;2.70;0.80;;;;;;;15.36;84.84;101357.31;6190418;23;20005;-73
2022/10/06 00:59:23;;;;;;;1.48;0.77;;;;;;;15.37;84.54;101353.53;6170144;23;20013;-73
2022/10/06 01:02:12;;;;;;;5.95;1.00;;;;;;;15.32;85.07;101355.97;6190753;23;20379;-73
2022/10/06 01:04:43;;;;;;;2.28;1.02;;;;;;;15.22;85.18;101387.22;6191647;23;20423;-73
2022/10/06 01:07:08;;;;;;;3.63;1.10;;;;;;;15.16;85.80;101383.31;6190956;23;20325;-73
2022/10/06 01:09:34;;;;;;;4.97;1.02;;;;;;;15.26;85.39;101383.97;6189989;23;20005;-73
2022/10/06 01:12:04;;;;;;;4.25;1.27;;;;;;;15.21;85.91;101375.47;6189476;23;20428;-73
2022/10/06 01:14:30;;;;;;;3.80;0.88;;;;;;;15.19;86.00;101366.56;6189107;23;20523;-73
2022/10/06 01:17:00;;;;;;;3.30;0.85;;;;;;;15.04;86.39;101384.72;6189400;23;20063;-73
2022/10/06 01:19:50;;;;;;;3.25;0.80;;;;;;;15.12;86.07;101411.94;6189376;23;19997;-73
2022/10/06 01:22:21;;;;;;;5.53;0.90;;;;;;;15.05;86.41;101392.72;6189163;23;20001;-73
2022/10/06 01:24:49;;;;;;;4.13;0.65;;;;;;;15.03;86.42;101399.38;6189015;23;20088;-73
2022/10/06 01:27:16;;;;;;;4.15;1.00;;;;;;;14.90;86.79;101389.84;6188874;23;20088;-73
2022/10/06 01:29:42;;;;;;;2.15;0.80;;;;;;;14.83;87.04;101405.22;6189635;23;20005;-72
2022/10/06 01:32:08;;;;;;;2.60;1.17;;;;;;;14.80;86.98;101426.50;6189544;23;20008;-73
2022/10/06 01:34:34;;;;;;;12.75;1.67;;;;;;;14.79;86.91;101398.41;6189785;23;20001;-73
2022/10/06 01:36:59;;;;;;;2.45;1.00;;;;;;;14.74;87.48;101411.72;6188940;23;20486;-72
2022/10/06 01:39:24;;;;;;;3.90;0.95;;;;;;;14.83;86.99;101421.56;6190844;23;20021;-73
2022/10/06 01:41:50;;;;;;;4.82;1.00;;;;;;;14.86;87.05;101414.91;6188576;23;20421;-73
2022/10/06 01:44:15;;;;;;;3.13;0.80;;;;;;;14.76;87.37;101420.56;6191161;23;20024;-73
2022/10/06 01:46:40;;;;;;;2.50;0.70;;;;;;;14.82;87.55;101425.31;6190996;23;20008;-74
2022/10/06 01:49:06;;;;;;;4.70;0.90;;;;;;;14.65;88.18;101435.38;6190184;23;20055;-74
2022/10/06 01:51:31;;;;;;;5.82;1.08;;;;;;;14.61;88.72;101433.19;6190851;23;20020;-74
2022/10/06 01:53:56;;;;;;;2.42;1.00;;;;;;;14.60;88.71;101437.75;6189972;23;20020;-74
2022/10/06 01:56:22;;;;;;;6.22;1.10;;;;;;;14.50;89.31;101436.25;6189574;23;20381;-74
2022/10/06 01:58:47;;;;;;;4.63;1.10;;;;;;;14.48;89.48;101449.19;6190263;23;20079;-74
2022/10/06 02:01:13;;;;;;;4.97;1.10;;;;;;;14.37;89.88;101459.38;6164288;23;20019;-74
2022/10/06 02:03:39;;;;;;;5.70;1.00;;;;;;;14.31;89.82;101454.59;6164014;23;20004;-74
2022/10/06 02:06:05;;;;;;;4.20;1.05;;;;;;;14.36;89.67;101457.66;6163969;23;20075;-74
2022/10/06 02:08:31;;;;;;;3.40;1.00;;;;;;;14.22;90.63;101474.69;6163715;23;20012;-74
2022/10/06 02:10:57;;;;;;;5.32;1.02;;;;;;;14.21;90.16;101486.56;6163871;23;20052;-74
2022/10/06 02:13:24;;;;;;;7.38;1.27;;;;;;;14.18;90.01;101478.75;6163736;23;20009;-74
2022/10/06 02:15:50;;;;;;;6.93;1.00;;;;;;;14.15;90.41;101481.81;6163928;23;20005;-73
2022/10/06 02:18:16;;;;;;;14.30;2.08;;;;;;;14.21;90.02;101494.72;6164306;23;19997;-74
2022/10/06 02:20:41;;;;;;;4.68;1.30;;;;;;;14.09;90.02;101496.09;6173598;23;20043;-73
2022/10/06 02:23:07;;;;;;;5.80;1.17;;;;;;;14.16;90.10;101499.84;6222542;23;20004;-73
2022/10/06 02:25:32;;;;;;;8.40;1.15;;;;;;;14.04;90.61;101501.19;6197188;23;20024;-74
2022/10/06 02:27:59;;;;;;;12.05;1.73;;;;;;;14.06;90.25;101496.41;6196712;23;20004;-73
2022/10/06 02:30:24;;;;;;;7.55;1.35;;;;;;;14.03;90.41;101508.50;6197287;23;20000;-74
2022/10/06 02:32:49;;;;;;;7.32;1.17;;;;;;;14.05;90.26;101513.78;6196388;23;20050;-74
2022/10/06 02:35:15;;;;;;;6.38;1.02;;;;;;;13.98;90.59;101534.50;6197068;23;20001;-74
2022/10/06 02:37:41;;;;;;;6.72;1.48;;;;;;;13.90;91.20;101537.22;6196588;23;20080;-74
2022/10/06 02:40:07;;;;;;;6.97;1.10;;;;;;;13.99;90.73;101536.22;6196495;23;20051;-74
2022/10/06 02:42:36;;;;;;;10.50;1.55;;;;;;;14.06;90.17;101549.00;6196266;23;20011;-74
2022/10/06 02:45:03;;;;;;;9.40;1.75;;;;;;;14.19;90.01;101548.53;6197238;23;20087;-74
2022/10/06 02:47:31;;;;;;;9.88;1.70;;;;;;;14.01;90.58;101535.00;6196061;23;19997;-74
2022/10/06 02:49:58;;;;;;;10.52;1.70;;;;;;;14.04;90.09;101561.09;6196890;23;20008;-74
2022/10/06 02:52:29;;;;;;;9.65;1.42;;;;;;;14.12;90.06;101563.84;6196587;23;20009;-74
2022/10/06 02:54:54;;;;;;;7.25;1.50;;;;;;;14.18;89.77;101557.72;6197015;23;20092;-74
2022/10/06 02:57:20;;;;;;;11.57;1.67;;;;;;;14.02;90.27;101568.56;6195946;23;20095;-74
2022/10/06 02:59:45;;;;;;;11.20;1.60;;;;;;;13.99;90.34;101574.31;6222816;23;20012;-74
2022/10/06 03:02:10;;;;;;;7.80;1.75;;;;;;;14.06;90.01;101575.38;6195890;23;20004;-74
2022/10/06 03:04:36;;;;;;;14.25;1.98;;;;;;;14.05;90.31;101573.69;6197035;23;20020;-74
2022/10/06 03:07:01;;;;;;;12.55;1.63;;;;;;;14.02;90.07;101579.47;6196341;23;20007;-74
2022/10/06 03:09:27;;;;;;;10.55;1.45;;;;;;;13.99;90.20;101579.78;6196325;23;20004;-74
2022/10/06 03:11:52;;;;;;;10.70;1.80;;;;;;;14.04;89.95;101599.22;6196200;23;20004;-74
2022/10/06 03:14:17;;;;;;;19.98;2.33;;;;;;;13.89;89.96;101589.91;6196052;23;20340;-74
2022/10/06 03:16:43;;;;;;;11.32;1.60;;;;;;;13.92;90.04;101601.34;6196265;23;20038;-74
2022/10/06 03:19:09;;;;;;;8.70;1.95;;;;;;;13.89;90.46;101600.81;6195955;23;20028;-74
2022/10/06 03:21:38;;;;;;;8.63;2.10;;;;;;;13.85;89.96;101617.47;6199601;23;20012;-74
2022/10/06 03:24:03;;;;;;;11.77;2.15;;;;;;;13.78;90.18;101605.53;6166043;23;20020;-74
2022/10/06 03:26:48;;;;;;;8.93;1.70;;;;;;;13.84;89.61;101610.34;6192573;23;19997;-74
2022/10/06 03:29:14;;;;;;;12.15;2.10;;;;;;;13.88;89.64;101642.66;6192521;23;19997;-74
2022/10/06 03:31:41;;;;;;;10.30;2.03;;;;;;;13.89;89.16;101638.94;6164124;23;20103;-74
2022/10/06 03:34:06;;;;;;;15.40;2.40;;;;;;;13.83;89.61;101635.84;6163496;23;20008;-75
2022/10/06 03:36:33;;;;;;;16.60;2.10;;;;;;;13.81;89.29;101643.31;6195036;23;20005;-75
2022/10/06 03:38:59;;;;;;;9.85;1.67;;;;;;;13.88;88.91;101643.50;6167359;23;20007;-74
2022/10/06 03:41:27;;;;;;;12.23;2.40;;;;;;;13.65;89.78;101667.72;6166691;23;20017;-73
2022/10/06 03:43:53;;;;;;;15.60;2.50;;;;;;;13.70;90.04;101651.75;6166459;23;20024;-73
2022/10/06 03:46:22;;;;;;;15.85;2.55;;;;;;;13.79;89.15;101661.69;6167784;23;20001;-73
2022/10/06 03:48:49;;;;;;;14.27;2.25;;;;;;;13.70;89.46;101672.69;6155638;23;20386;-73
2022/10/06 03:51:18;;;;;;;11.23;2.47;;;;;;;13.74;88.88;101655.00;6166589;23;20009;-73
2022/10/06 03:53:46;;;;;;;19.98;2.25;;;;;;;13.63;89.16;101672.47;6166813;23;20447;-73
2022/10/06 03:56:19;;;;;;;16.75;2.30;;;;;;;13.64;88.51;101668.72;6167210;23;20001;-74
2022/10/06 03:58:48;;;;;;;15.23;2.33;;;;;;;13.64;88.03;101674.16;6193103;23;20013;-73
2022/10/06 04:01:17;;;;;;;14.48;2.97;;;;;;;13.56;88.13;101671.34;6167069;23;20347;-73
2022/10/06 04:03:43;;;;;;;23.52;2.88;;;;;;;13.57;87.68;101694.88;6166344;23;19997;-73
2022/10/06 04:06:12;;;;;;;17.85;2.67;;;;;;;13.58;87.88;101688.41;6166883;23;20011;-73
2022/10/06 04:08:38;;;;;;;15.30;3.08;;;;;;;13.49;87.52;101698.34;6166812;23;20001;-73
2022/10/06 04:11:14;;;;;;;14.57;2.00;;;;;;;13.47;88.07;101699.53;6166933;23;20005;-73
2022/10/06 04:13:42;;;;;;;16.35;3.40;;;;;;;13.38;87.80;101695.03;6166992;23;20051;-71
2022/10/06 04:16:19;;;;;;;29.00;3.65;;;;;;;13.44;87.66;101699.84;6167878;23;20009;-72
2022/10/06 04:18:47;;;;;;;16.08;2.17;;;;;;;13.39;87.40;101703.03;6167292;23;20043;-72
2022/10/06 04:21:13;;;;;;;19.88;2.75;;;;;;;13.29;88.01;101703.09;6193587;23;20008;-72
2022/10/06 04:23:39;;;;;;;14.60;2.42;;;;;;;13.24;88.14;101700.00;6166970;23;20000;-73
2022/10/06 04:26:15;;;;;;;23.80;2.72;;;;;;;13.27;88.25;101710.56;6167127;23;20071;-72
2022/10/06 04:28:45;;;;;;;21.75;2.90;;;;;;;13.09;88.79;101711.53;6166834;23;20048;-73
2022/10/06 04:31:18;;;;;;;16.05;2.83;;;;;;;13.18;88.66;101719.63;6192757;23;20052;-72
2022/10/06 04:33:45;;;;;;;17.55;3.08;;;;;;;13.25;88.41;101726.19;6168727;23;20032;-74
2022/10/06 04:36:23;;;;;;;19.50;3.58;;;;;;;13.17;88.70;101741.53;6168692;23;20087;-72
2022/10/06 04:38:50;;;;;;;18.60;2.33;;;;;;;13.22;88.27;101772.72;6168627;23;20088;-72
2022/10/06 04:41:18;;;;;;;17.05;3.08;;;;;;;13.09;88.97;101745.00;6168716;23;20008;-73
2022/10/06 04:43:45;;;;;;;19.92;2.88;;;;;;;13.15;89.04;101754.44;6168856;23;20028;-72
2022/10/06 04:46:11;;;;;;;17.08;2.60;;;;;;;13.13;89.01;101760.03;6168456;23;20013;-72
2022/10/06 04:48:36;;;;;;;20.80;3.35;;;;;;;13.01;89.18;101774.84;6168141;23;20104;-73
2022/10/06 04:51:05;;;;;;;17.40;2.88;;;;;;;13.04;89.29;101769.13;6168596;23;20321;-73
2022/10/06 04:53:31;;;;;;;25.98;3.65;;;;;;;13.08;89.22;101780.53;6168779;23;20009;-72
2022/10/06 04:56:02;;;;;;;16.75;2.45;;;;;;;13.11;88.83;101781.09;6168259;23;20032;-73
2022/10/06 04:58:44;;;;;;;21.05;3.15;;;;;;;12.97;90.02;101784.28;6168699;23;20021;-72
2022/10/06 05:01:28;;;;;;;19.33;3.80;;;;;;;12.96;89.65;101788.03;6169006;23;20024;-73
2022/10/06 05:03:55;;;;;;;28.00;2.40;;;;;;;13.04;89.88;101794.44;6168985;23;20047;-73
2022/10/06 05:06:29;;;;;;;24.63;3.30;;;;;;;12.98;89.83;101807.78;6169215;23;20079;-73
2022/10/06 05:08:58;;;;;;;19.40;2.65;;;;;;;12.91;89.95;101806.63;6168673;23;20012;-73
2022/10/06 05:11:24;;;;;;;22.55;3.70;;;;;;;12.85;90.01;101835.31;6168927;23;20005;-73
2022/10/06 05:13:52;;;;;;;18.20;2.72;;;;;;;12.87;90.22;101816.13;6167294;23;20008;-73
2022/10/06 05:16:18;;;;;;;28.55;3.95;;;;;;;12.90;89.67;101821.25;6138850;23;20004;-72
2022/10/06 05:18:43;;;;;;;17.45;2.58;;;;;;;12.79;90.61;101826.91;6138029;23;20005;-73
2022/10/06 05:21:15;;;;;;;22.40;3.20;;;;;;;12.77;90.53;101833.31;6150297;23;20051;-73
2022/10/06 05:23:42;;;;;;;21.33;2.85;;;;;;;12.82;89.79;101840.16;6162990;23;20368;-72
2022/10/06 05:26:10;;;;;;;26.23;2.95;;;;;;;12.76;89.55;101858.78;6162874;23;20005;-73
2022/10/06 05:28:36;;;;;;;13.88;2.67;;;;;;;12.77;89.43;101860.47;6162463;23;20006;-73
2022/10/06 05:31:09;;;;;;;21.67;2.60;;;;;;;12.68;89.17;101855.94;6163600;23;19997;-72
2022/10/06 05:33:35;;;;;;;22.77;3.25;;;;;;;12.73;88.88;101864.53;6162277;23;20002;-72
2022/10/06 05:36:04;;;;;;;21.48;3.00;;;;;;;12.90;88.28;101864.75;6163424;23;20011;-73
2022/10/06 05:38:31;;;;;;;26.42;4.45;;;;;;;12.79;88.34;101863.09;6162924;23;20002;-73
2022/10/06 05:41:32;;;;;;;31.33;4.03;;;;;;;12.69;88.19;101873.09;6163436;23;20056;-72
2022/10/06 05:43:58;;;;;;;24.40;3.25;;;;;;;12.66;88.39;101868.84;6161930;23;20009;-72
2022/10/06 05:46:27;;;;;;;16.25;2.72;;;;;;;12.69;88.32;101879.41;6163435;23;20060;-73
2022/10/06 05:49:00;;;;;;;21.98;2.67;;;;;;;12.71;87.83;101871.97;6162907;23;20064;-73
2022/10/06 05:51:28;;;;;;;23.75;4.22;;;;;;;12.68;88.45;101882.28;6163069;23;20005;-73
2022/10/06 05:53:54;;;;;;;34.53;4.53;;;;;;;12.70;88.39;101900.13;6162748;23;20085;-73
2022/10/06 05:56:23;;;;;;;32.72;3.38;;;;;;;12.77;87.58;101897.69;6163162;23;20005;-73
2022/10/06 05:58:53;;;;;;;29.75;3.65;;;;;;;12.75;87.70;101916.84;6162423;23;20012;-73
2022/10/06 06:01:26;;;;;;;20.77;3.40;;;;;;;12.70;88.03;101908.28;6162779;23;20013;-74
2022/10/06 06:03:54;;;;;;;19.85;2.97;;;;;;;12.56;88.90;101924.19;6162516;23;20029;-72
2022/10/06 06:06:31;;;;;;;26.15;4.43;;;;;;;12.63;88.46;101939.75;6162964;23;20381;-74
2022/10/06 06:09:00;;;;;;;24.17;3.85;;;;;;;12.56;89.03;101927.78;6186840;23;20088;-74
2022/10/06 06:11:27;;;;;;;18.50;3.00;;;;;;;12.64;88.32;101925.16;6162983;23;20005;-73
2022/10/06 06:13:57;;;;;;;31.85;3.65;;;;;;;12.57;88.77;101934.91;6162049;23;20124;-73
2022/10/06 06:16:23;;;;;;;16.15;2.78;;;;;;;12.72;88.39;101943.50;6164746;23;20005;-73
2022/10/06 06:18:49;;;;;;;25.67;3.90;;;;;;;12.60;88.73;101953.66;6162378;23;20037;-73
2022/10/06 06:21:15;;;;;;;30.23;3.78;;;;;;;12.71;88.30;101953.50;6162824;23;20009;-74
2022/10/06 06:23:45;;;;;;;18.92;2.70;;;;;;;12.67;88.31;101962.94;6162242;23;20467;-73
2022/10/06 06:26:16;;;;;;;25.30;3.40;;;;;;;12.70;88.03;101965.34;6163091;23;20001;-73
2022/10/06 06:28:43;;;;;;;26.05;3.25;;;;;;;12.71;88.23;101975.25;6162504;23;20005;-72
2022/10/06 06:31:16;;;;;;;13.68;2.88;;;;;;;12.74;87.69;101968.66;6161818;23;20006;-70
2022/10/06 06:33:42;;;;;;;22.85;3.83;;;;;;;12.80;87.03;101978.09;6186802;23;20005;-70
2022/10/06 06:36:16;;;;;;;26.33;2.80;;;;;;;12.93;86.96;101976.75;6162130;23;20020;-71
2022/10/06 06:38:45;;;;;;;19.77;3.03;;;;;;;12.83;86.42;101989.50;6161866;23;20007;-71
2022/10/06 06:41:15;;;;;;;22.30;3.55;;;;;;;12.88;86.76;102002.66;6162179;23;20001;-71
2022/10/06 06:43:41;;;;;;;18.52;2.75;;;;;;;12.81;86.42;102001.53;6161743;23;19997;-71
2022/10/06 06:46:06;;;;;;;21.27;3.05;;;;;;;12.82;86.24;102004.09;6162030;23;20056;-71
2022/10/06 06:48:32;;;;;;;20.35;4.32;;;;;;;12.82;86.06;102019.56;6161406;23;20008;-71
2022/10/06 06:50:57;;;;;;;26.58;3.35;;;;;;;12.91;85.56;102019.56;6162457;23;20020;-71
2022/10/06 06:53:23;;;;;;;24.85;3.58;;;;;;;12.82;85.95;102022.28;6161774;23;20028;-71
2022/10/06 06:55:50;;;;;;;22.67;2.97;;;;;;;12.84;85.41;102034.69;6161598;23;20029;-71
2022/10/06 06:58:19;;;;;;;21.08;3.75;;;;;;;13.01;85.21;102024.97;6151459;23;20001;-71
2022/10/06 07:00:46;;;;;;;31.13;4.35;;;;;;;12.94;84.92;102023.84;6145072;23;20421;-71
2022/10/06 07:03:20;;;;;;;31.23;3.83;;;;;;;12.97;84.89;102028.97;6153401;23;20080;-71
2022/10/06 07:05:46;;;;;;;21.25;3.40;;;;;;;13.05;84.68;102040.00;6176791;23;20242;-71
2022/10/06 07:08:14;;;;;;;27.80;4.00;;;;;;;13.14;84.18;102033.66;6153626;23;20072;-71
2022/10/06 07:10:40;;;;;;;19.13;3.05;;;;;;;13.14;84.14;102058.16;6154721;23;20092;-68
2022/10/06 07:13:06;;;;;;;23.55;4.00;;;;;;;13.13;83.76;102050.13;6156183;23;20005;-70
2022/10/06 07:26:32;;;;;;;21.63;3.72;;;;;;;13.37;81.82;102075.03;6120977;23;20100;-71
2022/10/06 07:28:58;;;;;;;30.90;3.70;;;;;;;13.27;83.03;102080.47;6155921;23;20140;-70
2022/10/06 07:31:32;;;;;;;27.23;3.40;;;;;;;13.23;82.78;102073.59;6129031;23;20092;-68
2022/10/06 07:34:02;;;;;;;16.98;3.08;;;;;;;13.35;82.74;102092.50;6129852;23;20013;-69
2022/10/06 07:36:29;;;;;;;27.17;3.58;;;;;;;13.29;82.68;102100.22;6130070;23;20425;-69
2022/10/06 07:38:55;;;;;;;16.92;2.78;;;;;;;13.48;81.45;102114.78;6130283;23;20226;-69
2022/10/06 07:41:21;;;;;;;23.40;3.95;;;;;;;13.41;82.39;102108.22;6129344;23;20029;-69
2022/10/06 07:43:47;;;;;;;19.58;3.75;;;;;;;13.40;81.87;102106.50;6129447;23;20425;-70
2022/10/06 07:46:13;;;;;;;30.98;4.55;;;;;;;13.55;81.18;102115.91;6131642;23;20036;-71
2022/10/06 07:48:39;;;;;;;29.48;3.35;;;;;;;13.42;81.69;102153.47;6130346;23;20056;-70
2022/10/06 07:51:15;;;;;;;20.63;3.42;;;;;;;13.61;81.53;102131.66;6132121;23;20092;-71
2022/10/06 07:53:43;;;;;;;26.73;3.22;;;;;;;13.58;81.80;102137.41;6131588;23;20001;-68
2022/10/06 07:56:09;;;;;;;18.20;2.88;;;;;;;13.46;82.16;102133.13;6131083;23;20088;-71
2022/10/06 07:58:36;;;;;;;20.48;3.25;;;;;;;13.61;81.81;102142.53;6130725;23;20028;-70
2022/10/06 08:01:12;;;;;;;19.42;3.78;;;;;;;13.56;81.35;102159.34;6132356;23;19997;-72
2022/10/06 08:03:38;;;;;;;24.63;4.57;;;;;;;13.60;81.57;102168.06;6131863;23;20379;-71
2022/10/06 08:06:05;;;;;;;18.15;3.67;;;;;;;13.79;80.97;102158.97;6131522;23;20009;-70
2022/10/06 08:08:35;;;;;;;22.58;4.30;;;;;;;13.74;80.96;102164.84;6133745;23;20077;-70
2022/10/06 08:11:02;;;;;;;25.83;5.60;;;;;;;13.84;80.96;102159.41;6134000;23;20015;-72
2022/10/06 08:13:31;;;;;;;25.50;3.47;;;;;;;13.97;80.54;102164.53;6133147;23;20005;-72
2022/10/06 08:16:03;;;;;;;24.45;3.25;;;;;;;13.86;80.82;102168.28;6132654;23;20001;-69
2022/10/06 08:18:29;;;;;;;25.58;4.10;;;;;;;13.95;80.13;102161.06;6133394;23;20010;-71
2022/10/06 08:20:54;;;;;;;25.90;4.05;;;;;;;13.87;80.82;102191.75;6148470;23;20001;-71
2022/10/06 08:23:19;;;;;;;17.55;3.45;;;;;;;14.01;79.85;102198.59;6163387;23;20004;-70
2022/10/06 08:25:50;;;;;;;23.75;3.72;;;;;;;13.96;80.40;102200.94;6165961;23;20015;-71
2022/10/06 08:28:16;;;;;;;23.48;3.58;;;;;;;13.96;79.87;102200.94;6164212;23;20008;-70
2022/10/06 08:30:41;;;;;;;16.65;3.58;;;;;;;14.16;79.83;102201.72;6164012;23;20359;-68
2022/10/06 08:33:07;;;;;;;29.58;4.40;;;;;;;13.82;80.03;102227.63;6165538;23;20005;-70
2022/10/06 08:35:32;;;;;;;22.00;3.38;;;;;;;13.91;80.34;102219.56;6162460;23;20001;-70
2022/10/06 08:37:58;;;;;;;25.95;3.95;;;;;;;14.15;78.72;102247.19;6163582;23;20024;-70
2022/10/06 08:40:25;;;;;;;29.20;3.45;;;;;;;14.18;78.98;102227.78;6162552;23;20036;-70
2022/10/06 08:42:54;;;;;;;27.67;3.53;;;;;;;14.17;78.46;102241.56;6162967;23;20084;-68
2022/10/06 08:45:23;;;;;;;23.33;4.40;;;;;;;14.10;79.43;102231.28;6163413;23;19997;-70
2022/10/06 08:47:51;;;;;;;26.02;5.10;;;;;;;14.24;78.67;102220.91;6162077;23;20097;-69
2022/10/06 08:50:17;;;;;;;21.90;3.95;;;;;;;14.42;78.13;102245.50;6162762;23;20001;-72
2022/10/06 08:53:07;;;;;;;23.30;4.10;;;;;;;14.37;77.75;102233.16;6163051;23;20004;-69
2022/10/06 08:55:50;;;;;;;25.73;3.13;;;;;;;14.40;77.95;102238.31;6163073;23;20082;-70
2022/10/06 08:58:21;;;;;;;23.63;3.28;;;;;;;14.57;77.20;102227.66;6162272;23;20020;-71
2022/10/06 09:00:47;;;;;;;27.98;3.65;;;;;;;14.89;76.74;102238.97;6162310;23;20039;-71
2022/10/06 09:03:22;;;;;;;22.50;3.78;;;;;;;14.44;77.57;102248.94;6163297;23;20005;-68
2022/10/06 09:05:52;;;;;;;23.77;3.53;;;;;;;14.55;76.99;102254.22;6163865;23;20005;-70
2022/10/06 09:08:44;;;;;;;21.90;3.00;;;;;;;14.83;76.78;102266.84;6162445;23;20005;-71
2022/10/06 09:11:34;;;;;;;21.20;2.95;;;;;;;15.13;75.45;102268.38;6162571;23;20043;-69
2022/10/06 09:14:05;;;;;;;18.73;3.30;;;;;;;14.79;75.54;102276.31;6161943;23;20005;-70
2022/10/06 09:16:38;;;;;;;25.98;4.55;;;;;;;14.83;75.11;102277.75;6161697;23;20059;-70
2022/10/06 09:19:08;;;;;;;21.67;3.88;;;;;;;15.27;74.68;102269.72;6160897;23;20011;-68
2022/10/06 09:21:48;;;;;;;21.00;3.35;;;;;;;14.79;74.68;102284.50;6163134;23;20011;-70
2022/10/06 09:24:37;;;;;;;23.08;3.60;;;;;;;15.06;73.82;102299.13;6163382;23;19993;-70
2022/10/06 09:27:18;;;;;;;22.10;3.25;;;;;;;15.33;74.05;102301.84;6161909;23;20005;-72
2022/10/06 09:29:47;;;;;;;22.00;4.18;;;;;;;15.53;72.31;102290.78;6162208;23;20061;-69
2022/10/06 09:32:14;;;;;;;20.15;3.72;;;;;;;15.21;72.60;102319.47;6161882;23;20324;-69
2022/10/06 09:34:44;;;;;;;23.30;3.05;;;;;;;15.20;72.40;102312.28;6164132;23;19993;-71
2022/10/06 09:37:12;;;;;;;20.57;4.23;;;;;;;15.42;72.60;102297.31;6162624;23;20432;-71
2022/10/06 09:39:43;;;;;;;22.90;3.55;;;;;;;15.82;71.45;102296.88;6161854;23;20005;-72
2022/10/06 09:42:08;;;;;;;26.35;3.90;;;;;;;15.55;71.51;102299.69;6162247;23;20426;-70
2022/10/06 09:44:50;;;;;;;23.17;3.55;;;;;;;15.67;71.50;102325.78;6162407;23;20005;-71
2022/10/06 09:47:30;;;;;;;36.22;4.55;;;;;;;15.39;71.61;102339.44;6162784;23;20005;-72
2022/10/06 09:50:13;;;;;;;25.45;4.00;;;;;;;15.37;71.11;102307.84;6162592;23;20087;-72
2022/10/06 09:55:18;;;;;;;18.77;3.42;;;;;;;15.25;70.58;102337.22;6118677;23;20022;-80
2022/10/06 09:57:52;;;;;;;26.45;4.53;;;;;;;15.43;70.39;102323.59;6104247;23;20002;-80
2022/10/06 10:00:28;;;;;;;24.55;3.53;;;;;;;15.96;69.58;102299.03;6128784;23;20005;-78
2022/10/06 10:03:07;;;;;;;19.30;3.38;;;;;;;15.87;69.55;102321.84;6103232;23;20018;-78
2022/10/06 10:05:35;;;;;;;19.40;3.42;;;;;;;16.16;68.46;102320.69;6129423;23;20064;-80
2022/10/06 10:08:08;;;;;;;26.63;3.45;;;;;;;16.09;68.21;102339.59;6128840;23;20010;-78
2022/10/06 10:10:36;;;;;;;24.77;4.18;;;;;;;16.23;68.64;102343.63;6129116;23;20017;-80
2022/10/06 10:13:02;;;;;;;24.35;3.83;;;;;;;15.74;69.11;102337.78;6104315;23;19997;-78
2022/10/06 10:15:32;;;;;;;13.55;2.75;;;;;;;15.41;70.22;102345.59;6104032;23;20064;-78
2022/10/06 10:18:02;;;;;;;30.60;3.08;;;;;;;15.39;70.13;102365.91;6103551;23;20029;-81
2022/10/06 10:20:33;;;;;;;18.25;3.72;;;;;;;15.24;70.48;102335.50;6104049;23;20010;-78
2022/10/06 10:23:02;;;;;;;16.67;3.25;;;;;;;15.65;68.98;102344.19;6104974;23;20080;-78
2022/10/06 10:25:46;;;;;;;22.95;4.18;;;;;;;15.44;69.59;102342.56;6129315;23;20092;-77
2022/10/06 10:28:26;;;;;;;20.20;3.88;;;;;;;15.77;69.36;102370.22;6102981;23;20009;-77
2022/10/06 10:31:01;;;;;;;36.30;3.65;;;;;;;16.44;68.11;102346.88;6103362;23;20093;-78
2022/10/06 10:33:38;;;;;;;27.60;4.63;;;;;;;16.21;67.96;102356.63;6103526;23;20069;-80
2022/10/06 10:36:08;;;;;;;20.17;3.55;;;;;;;15.92;67.28;102390.53;6104351;23;20006;-77
2022/10/06 10:38:39;;;;;;;21.67;3.85;;;;;;;15.84;67.76;102376.78;6103855;23;20005;-77
2022/10/06 10:41:09;;;;;;;;;;;;;;;15.82;67.64;102384.28;6105026;23;19997;-80
2022/10/06 10:44:05;;;;;;;23.63;4.13;;;;;;;16.00;67.81;102371.47;6104607;23;19951;-78
2022/10/06 10:46:44;;;;;;;28.67;3.85;;;;;;;16.44;66.57;102378.84;6083867;23;20017;-80
2022/10/06 10:49:26;;;;;;;22.10;4.03;;;;;;;16.82;66.32;102366.59;6102528;23;20077;-78
2022/10/06 10:51:55;;;;;;;;;;;;;;;16.77;65.72;102374.47;6128196;23;20013;-78
2022/10/06 10:54:35;;;;;;;19.05;3.67;;;;;;;16.70;65.15;102389.81;6102294;23;19913;-78
2022/10/06 10:57:02;;;;;;;21.48;4.25;;;;;;;16.42;64.58;102370.78;6103274;23;20002;-77
2022/10/06 10:59:48;;;;;;;21.27;3.45;;;;;;;16.13;64.84;102381.16;6104966;23;20005;-80
2022/10/06 11:02:21;;;;;;;20.50;4.07;;;;;;;15.94;65.31;102404.03;6104109;23;20064;-77
2022/10/06 11:04:50;;;;;;;17.48;3.30;;;;;;;15.73;66.77;102390.69;6104648;23;20002;-80
2022/10/06 11:07:25;;;;;;;17.50;3.53;;;;;;;16.21;65.72;102393.00;6105374;23;20001;-78
2022/10/06 11:10:12;;;;;;;22.08;3.40;;;;;;;16.30;64.50;102388.47;6104892;23;20002;-77
2022/10/06 11:12:56;;;;;;;22.17;3.95;;;;;;;16.40;64.08;102405.63;6105674;23;20012;-78
2022/10/06 11:15:40;;;;;;;13.95;3.67;;;;;;;16.58;63.83;102382.88;6130070;23;20002;-79
2022/10/06 11:18:28;;;;;;;21.73;3.70;;;;;;;16.75;64.28;102403.84;6129420;23;20009;-78
2022/10/06 11:20:58;;;;;;;17.65;2.78;;;;;;;16.62;62.45;102392.44;6105011;23;20014;-77
2022/10/06 11:23:43;;;;;;;16.83;2.70;;;;;;;16.29;63.25;102397.66;6104359;23;20002;-78
2022/10/06 11:26:30;;;;;;;15.23;3.20;;;;;;;16.29;63.45;102408.59;6104814;23;20014;-78
2022/10/06 11:29:05;;;;;;;18.25;3.22;;;;;;;16.43;63.20;102398.97;6105753;23;20006;-77
2022/10/06 11:31:43;;;;;;;24.33;3.40;;;;;;;16.39;63.14;102408.53;6104169;23;20006;-77
2022/10/06 11:34:09;;;;;;;18.10;3.35;;;;;;;16.06;65.01;102418.31;6105364;23;20085;-77
2022/10/06 11:36:55;;;;;;;23.92;2.83;;;;;;;16.05;65.54;102413.88;6104482;23;20022;-77
2022/10/06 11:39:23;;;;;;;19.45;3.90;;;;;;;15.83;65.03;102415.19;6105650;23;20013;-78
2022/10/06 11:42:05;;;;;;;13.48;2.95;;;;;;;16.00;64.25;102415.19;6131063;23;20074;-77
2022/10/06 11:44:44;;;;;;;20.50;3.47;;;;;;;16.02;65.06;102413.16;6106677;23;20005;-77